createdAt,value
2023-06-24T02:36:19.862Z,6.47
2023-06-24T02:40:26.493Z,6.90
2023-06-24T02:44:32.273Z,6.53
2023-06-24T02:48:40.041Z,6.83
2023-06-24T02:52:46.100Z,6.80
2023-06-24T02:56:51.737Z,6.13
2023-06-24T03:01:00.046Z,6.10
2023-06-24T03:05:07.532Z,6.87
2023-06-24T03:09:13.372Z,6.47
2023-06-24T03:13:18.820Z,6.20
2023-06-24T03:17:25.757Z,7.00
2023-06-24T03:21:31.575Z,7.10
2023-06-24T03:25:37.306Z,7.80
2023-06-24T03:29:42.758Z,7.77
2023-06-24T03:33:48.266Z,7.27
2023-06-24T03:37:53.777Z,7.53
2023-06-24T03:41:59.487Z,7.20
2023-06-24T03:46:04.942Z,7.20
2023-06-24T03:50:11.080Z,8.40
2023-06-24T03:54:16.583Z,7.40
2023-06-24T03:58:22.299Z,7.57
2023-06-24T04:02:28.217Z,8.30
2023-06-24T04:06:33.750Z,8.07
2023-06-24T04:10:39.246Z,8.27
2023-06-24T04:14:44.679Z,8.00
2023-06-24T04:18:50.131Z,8.67
2023-06-24T04:22:56.022Z,8.60
2023-06-24T04:27:01.523Z,7.47
2023-06-24T04:31:07.112Z,8.43
2023-06-24T04:35:12.654Z,6.93
2023-06-24T04:39:18.129Z,7.70
2023-06-24T04:43:23.584Z,8.40
2023-06-24T04:47:29.056Z,7.83
2023-06-24T04:51:34.643Z,7.77
2023-06-24T04:55:40.109Z,7.30
2023-06-24T04:59:45.564Z,6.90
2023-06-24T05:03:51.046Z,7.57
2023-06-24T05:07:56.614Z,7.27
2023-06-24T05:12:02.120Z,7.23
2023-06-24T05:16:07.671Z,6.63
2023-06-24T05:20:13.278Z,5.90
2023-06-24T05:24:18.736Z,6.77
2023-06-24T05:28:24.237Z,6.70
2023-06-24T05:32:29.721Z,6.57
2023-06-24T05:36:35.676Z,6.93
2023-06-24T05:40:41.118Z,6.10
2023-06-24T05:44:46.609Z,6.70
2023-06-24T05:48:52.065Z,6.00
2023-06-24T05:52:57.555Z,5.93
2023-06-24T05:57:07.098Z,5.50
2023-06-24T06:01:12.602Z,5.30
2023-06-24T06:05:18.110Z,6.00
2023-06-24T06:09:23.748Z,6.20
2023-06-24T06:13:30.260Z,5.30
2023-06-24T06:17:35.737Z,4.80
2023-06-24T06:21:41.242Z,4.13
2023-06-24T06:25:49.203Z,4.43
2023-06-24T06:29:55.029Z,4.57
2023-06-24T06:34:00.499Z,5.00
2023-06-24T06:38:06.675Z,4.07
2023-06-24T06:42:12.122Z,4.30
2023-06-24T06:46:17.650Z,4.23
2023-06-24T06:50:23.176Z,4.33
2023-06-24T06:54:28.682Z,3.83
2023-06-24T06:58:34.142Z,3.87
2023-06-24T07:02:40.901Z,4.33
2023-06-24T07:06:46.446Z,4.00
2023-06-24T07:10:52.020Z,4.30
2023-06-24T07:14:57.695Z,3.40
2023-06-24T07:19:03.182Z,3.90
2023-06-24T07:23:08.702Z,4.10
2023-06-24T07:27:14.162Z,3.77
2023-06-24T07:31:19.656Z,4.13
2023-06-24T07:35:25.181Z,4.20
2023-06-24T07:39:30.672Z,3.90
2023-06-24T07:43:36.119Z,4.17
2023-06-24T07:47:41.641Z,3.40
2023-06-24T07:51:47.166Z,3.20
2023-06-24T07:55:52.700Z,3.03
2023-06-24T07:59:58.337Z,2.60
2023-06-24T08:04:04.424Z,2.90
2023-06-24T08:08:10.425Z,3.03
2023-06-24T08:12:15.900Z,3.10
2023-06-24T08:16:21.477Z,3.27
2023-06-24T08:20:27.356Z,2.90
2023-06-24T08:24:33.280Z,2.63
2023-06-24T08:28:38.775Z,2.50
2023-06-24T08:32:44.346Z,2.83
2023-06-24T08:36:49.781Z,3.03
2023-06-24T08:40:55.470Z,2.80
2023-06-24T08:45:01.047Z,3.00
2023-06-24T08:49:27.834Z,2.90
2023-06-24T08:53:34.153Z,3.03
2023-06-24T08:57:39.664Z,3.47
2023-06-24T09:01:45.145Z,2.43
2023-06-24T09:05:50.619Z,2.90
2023-06-24T09:09:56.534Z,3.30
2023-06-24T09:14:02.132Z,3.00
2023-06-24T09:18:07.934Z,2.80
2023-06-24T09:22:18.372Z,3.57
2023-06-24T09:26:28.520Z,3.30
2023-06-24T09:30:34.019Z,3.13
2023-06-24T09:34:40.157Z,3.07
2023-06-24T09:38:46.041Z,2.83
2023-06-24T09:42:57.268Z,2.97
2023-06-24T09:47:03.039Z,2.83
2023-06-24T09:51:10.045Z,3.40
2023-06-24T09:55:17.731Z,3.27
2023-06-24T09:59:25.315Z,3.23
2023-06-24T10:03:36.759Z,2.77
2023-06-24T10:07:42.938Z,3.07
2023-06-24T10:11:48.930Z,3.10
2023-06-24T10:15:56.019Z,3.10
2023-06-24T10:20:07.201Z,3.27
2023-06-24T10:24:12.733Z,3.07
2023-06-24T10:28:18.218Z,2.40
2023-06-24T10:32:24.401Z,2.87
2023-06-24T10:36:33.318Z,3.07
2023-06-24T10:40:44.494Z,2.43
2023-06-24T10:44:51.849Z,2.97
2023-06-24T10:48:57.302Z,2.83
2023-06-24T10:53:09.204Z,3.43
2023-06-24T10:57:14.800Z,2.57
2023-06-24T11:01:20.382Z,2.50
2023-06-24T11:05:25.983Z,2.77
2023-06-24T11:09:31.470Z,3.03
2023-06-24T11:13:36.917Z,2.80
2023-06-24T11:17:43.374Z,2.70
2023-06-24T11:21:48.976Z,2.57
2023-06-24T11:25:56.705Z,2.90
2023-06-24T11:30:02.939Z,2.60
2023-06-24T11:34:10.800Z,2.60
2023-06-24T11:38:18.048Z,2.93
2023-06-24T11:42:24.566Z,2.90
2023-06-24T11:46:36.475Z,3.17
2023-06-24T11:50:41.984Z,2.90
2023-06-24T11:54:52.159Z,2.63
2023-06-24T11:58:58.481Z,3.20
2023-06-24T12:03:10.712Z,2.83
2023-06-24T12:07:17.163Z,2.50
2023-06-24T12:11:22.792Z,2.67
2023-06-24T12:15:29.414Z,3.03
2023-06-24T12:19:34.894Z,2.67
2023-06-24T12:23:40.399Z,2.93
2023-06-24T12:27:46.627Z,3.23
2023-06-24T12:31:52.168Z,3.10
2023-06-24T12:35:57.741Z,3.00
2023-06-24T12:40:04.795Z,3.20
2023-06-24T12:44:10.309Z,3.20
2023-06-24T12:48:15.753Z,2.87
2023-06-24T12:52:21.433Z,2.77
2023-06-24T12:56:26.964Z,3.07
2023-06-24T13:00:32.535Z,2.83
2023-06-24T13:04:38.076Z,2.90
2023-06-24T13:08:44.654Z,2.90
2023-06-24T13:12:52.269Z,5.50
2023-06-24T13:16:58.067Z,3.53
2023-06-24T13:21:14.501Z,3.43
2023-06-24T13:25:21.094Z,2.90
2023-06-24T13:29:28.333Z,3.27
2023-06-24T13:33:33.906Z,2.80
2023-06-24T13:37:39.842Z,3.37
2023-06-24T13:41:48.476Z,2.50
2023-06-24T13:45:54.062Z,3.00
2023-06-24T13:49:59.948Z,2.90
2023-06-24T13:54:05.590Z,2.67
2023-06-24T13:58:11.053Z,2.57
2023-06-24T14:02:16.788Z,2.67
2023-06-24T14:06:23.783Z,2.70
2023-06-24T14:10:29.360Z,3.40
2023-06-24T14:14:37.974Z,2.67
2023-06-24T14:18:44.364Z,2.53
2023-06-24T14:22:49.893Z,3.50
2023-06-24T14:26:55.736Z,2.70
2023-06-24T14:31:01.220Z,3.90
2023-06-24T14:35:08.532Z,2.93
2023-06-24T14:39:19.808Z,3.40
2023-06-24T14:43:25.257Z,2.90
2023-06-24T14:47:30.732Z,3.00
2023-06-24T14:51:36.238Z,3.60
2023-06-24T14:55:41.738Z,3.00
2023-06-24T14:59:47.648Z,2.87
2023-06-24T15:03:53.780Z,3.07
2023-06-24T15:07:59.454Z,2.80
2023-06-24T15:12:05.420Z,3.20
2023-06-24T15:16:10.930Z,3.10
2023-06-24T15:20:16.424Z,2.80
2023-06-24T15:24:21.895Z,3.10
2023-06-24T15:28:27.765Z,3.10
2023-06-24T15:32:33.481Z,3.23
2023-06-24T15:36:38.972Z,3.07
2023-06-24T15:40:44.483Z,3.10
2023-06-24T15:44:49.938Z,3.30
2023-06-24T15:48:55.371Z,2.87
2023-06-24T15:53:00.890Z,3.20
2023-06-24T15:57:06.564Z,3.20
2023-06-24T16:01:12.067Z,3.13
2023-06-24T16:05:17.638Z,3.37
2023-06-24T16:09:23.121Z,2.90
2023-06-24T16:13:28.592Z,2.97
2023-06-24T16:17:34.061Z,2.80
2023-06-24T16:21:39.547Z,2.87
2023-06-24T16:25:45.050Z,2.37
2023-06-24T16:29:50.501Z,2.70
2023-06-24T16:33:55.987Z,2.70
2023-06-24T16:38:01.480Z,2.70
2023-06-24T16:42:07.385Z,2.73
2023-06-24T16:46:12.855Z,2.93
2023-06-24T16:50:18.473Z,2.50
2023-06-24T16:54:25.693Z,2.77
2023-06-24T16:58:31.164Z,2.97
2023-06-24T17:02:36.866Z,3.37
2023-06-24T17:06:42.528Z,2.83
2023-06-24T17:10:48.430Z,2.70
2023-06-24T17:14:53.885Z,3.03
2023-06-24T17:18:59.492Z,2.80
2023-06-24T17:23:04.937Z,2.90
2023-06-24T17:27:10.462Z,3.30
2023-06-24T17:31:15.964Z,2.90
2023-06-24T17:35:23.157Z,3.40
2023-06-24T17:39:28.695Z,3.23
2023-06-24T17:43:34.195Z,3.20
2023-06-24T17:47:39.749Z,3.20
2023-06-24T17:51:45.253Z,3.07
2023-06-24T17:55:50.705Z,3.00
2023-06-24T17:59:56.244Z,3.20
2023-06-24T18:04:01.828Z,3.10
2023-06-24T18:08:07.449Z,3.13
2023-06-24T18:12:12.908Z,3.10
2023-06-24T18:16:18.338Z,3.47
2023-06-24T18:20:23.807Z,3.53
2023-06-24T18:24:29.270Z,2.90
2023-06-24T18:28:34.800Z,3.70
2023-06-24T18:32:40.351Z,2.90
2023-06-24T18:36:45.955Z,2.70
2023-06-24T18:40:52.112Z,2.77
2023-06-24T18:44:57.677Z,3.90
2023-06-24T18:49:03.143Z,3.23
2023-06-24T18:53:11.811Z,3.53
2023-06-24T18:57:17.368Z,2.70
2023-06-24T19:01:22.825Z,3.00
2023-06-24T19:05:28.322Z,3.30
2023-06-24T19:09:33.783Z,3.10
2023-06-24T19:13:39.636Z,3.40
2023-06-24T19:17:46.889Z,3.00
2023-06-24T19:21:53.935Z,3.47
2023-06-24T19:25:59.438Z,3.07
2023-06-24T19:30:06.249Z,3.40
2023-06-24T19:34:12.586Z,3.17
2023-06-24T19:38:18.156Z,3.97
2023-06-24T19:42:23.750Z,3.57
2023-06-24T19:46:39.929Z,3.40
2023-06-24T19:50:47.608Z,3.17
2023-06-24T19:54:53.751Z,3.50
2023-06-24T19:58:59.266Z,3.43
2023-06-24T20:03:06.300Z,3.60
2023-06-24T20:07:12.489Z,3.80
2023-06-24T20:11:18.904Z,3.40
2023-06-24T20:15:24.473Z,3.93
2023-06-24T20:19:30.001Z,3.77
2023-06-24T20:23:35.511Z,4.70
2023-06-24T20:27:40.975Z,3.77
2023-06-24T20:31:46.610Z,3.80
2023-06-24T20:35:52.113Z,3.97
2023-06-24T20:39:57.535Z,3.80
2023-06-24T20:44:04.284Z,3.70
2023-06-24T20:48:09.741Z,3.73
2023-06-24T20:52:15.514Z,4.10
2023-06-24T20:56:21.020Z,4.60
2023-06-24T21:00:26.590Z,4.37
2023-06-24T21:04:32.073Z,4.53
2023-06-24T21:08:37.644Z,4.83
2023-06-24T21:12:56.679Z,4.23
2023-06-24T21:17:03.222Z,4.43
2023-06-24T21:21:08.925Z,4.33
2023-06-24T21:25:14.440Z,5.10
2023-06-24T21:29:19.913Z,5.10
2023-06-24T21:33:25.413Z,5.00
2023-06-24T21:37:31.200Z,5.27
2023-06-24T21:41:36.638Z,5.10
2023-06-24T21:45:42.149Z,4.43
2023-06-24T21:49:47.649Z,4.43
2023-06-24T21:53:53.124Z,5.90
2023-06-24T21:57:58.582Z,4.70
2023-06-24T22:02:05.870Z,5.00
2023-06-24T22:06:11.402Z,4.60
2023-06-24T22:10:16.952Z,5.13
2023-06-24T22:14:22.464Z,5.50
2023-06-24T22:18:28.003Z,5.30
2023-06-24T22:22:33.476Z,5.43
2023-06-24T22:26:38.942Z,5.40
2023-06-24T22:30:44.412Z,5.70
2023-06-24T22:34:49.896Z,6.30
2023-06-24T22:38:55.507Z,5.87
2023-06-24T22:43:01.847Z,6.00
2023-06-24T22:47:07.448Z,6.07
2023-06-24T22:51:12.943Z,6.47
2023-06-24T22:55:18.459Z,6.13
2023-06-24T22:59:23.960Z,6.30
2023-06-24T23:03:29.758Z,5.93
2023-06-24T23:07:36.124Z,5.97
2023-06-24T23:11:42.409Z,6.77
2023-06-24T23:15:48.201Z,6.13
2023-06-24T23:19:54.060Z,5.67
2023-06-24T23:24:00.946Z,6.00
2023-06-24T23:28:07.765Z,6.43
2023-06-24T23:32:13.684Z,7.07
2023-06-24T23:36:19.414Z,5.97
2023-06-24T23:40:25.285Z,6.30
2023-06-24T23:44:31.283Z,6.53
2023-06-24T23:48:36.773Z,6.33
2023-06-24T23:52:42.299Z,6.40
2023-06-24T23:56:47.772Z,6.67
